sensor_id;sensor_type;location;lat;lon;timestamp;P1;durP1;ratioP1;P2;durP2;ratioP2
8476;SDS011;4275;42.854;23.222;2022-07-05T00:01:22;21.48;;;19.98;;
8476;SDS011;4275;42.854;23.222;2022-07-05T00:03:49;22.63;;;21.05;;
8476;SDS011;4275;42.854;23.222;2022-07-05T00:06:18;21.35;;;19.85;;
8476;SDS011;4275;42.854;23.222;2022-07-05T00:08:45;22.05;;;20.45;;
8476;SDS011;4275;42.854;23.222;2022-07-05T00:11:12;24.77;;;23.08;;
8476;SDS011;4275;42.854;23.222;2022-07-05T00:13:39;22.60;;;21.00;;
8476;SDS011;4275;42.854;23.222;2022-07-05T00:16:06;22.40;;;20.80;;
8476;SDS011;4275;42.854;23.222;2022-07-05T00:18:33;22.48;;;20.88;;
8476;SDS011;4275;42.854;23.222;2022-07-05T00:21:00;22.80;;;21.20;;
8476;SDS011;4275;42.854;23.222;2022-07-05T00:23:29;23.10;;;21.50;;
8476;SDS011;4275;42.854;23.222;2022-07-05T00:25:55;22.25;;;20.65;;
8476;SDS011;4275;42.854;23.222;2022-07-05T00:28:23;23.40;;;21.70;;
8476;SDS011;4275;42.854;23.222;2022-07-05T00:30:49;21.45;;;19.95;;
8476;SDS011;4275;42.854;23.222;2022-07-05T00:33:16;21.38;;;19.88;;
8476;SDS011;4275;42.854;23.222;2022-07-05T00:35:44;22.05;;;20.55;;
8476;SDS011;4275;42.854;23.222;2022-07-05T00:38:11;21.98;;;20.38;;
8476;SDS011;4275;42.854;23.222;2022-07-05T00:40:39;22.23;;;20.73;;
8476;SDS011;4275;42.854;23.222;2022-07-05T00:43:08;21.58;;;20.08;;
8476;SDS011;4275;42.854;23.222;2022-07-05T00:45:35;22.52;;;21.02;;
8476;SDS011;4275;42.854;23.222;2022-07-05T00:48:02;23.45;;;21.85;;
8476;SDS011;4275;42.854;23.222;2022-07-05T00:50:29;22.58;;;20.98;;
8476;SDS011;4275;42.854;23.222;2022-07-05T00:52:57;21.52;;;20.02;;
8476;SDS011;4275;42.854;23.222;2022-07-05T00:55:25;21.90;;;20.40;;
8476;SDS011;4275;42.854;23.222;2022-07-05T00:57:54;22.08;;;20.50;;
8476;SDS011;4275;42.854;23.222;2022-07-05T01:00:22;21.85;;;20.35;;
8476;SDS011;4275;42.854;23.222;2022-07-05T01:02:49;21.77;;;20.27;;
8476;SDS011;4275;42.854;23.222;2022-07-05T01:05:16;21.38;;;19.88;;
8476;SDS011;4275;42.854;23.222;2022-07-05T01:07:43;21.60;;;20.10;;
8476;SDS011;4275;42.854;23.222;2022-07-05T01:10:10;22.00;;;20.50;;
8476;SDS011;4275;42.854;23.222;2022-07-05T01:12:38;22.02;;;20.52;;
8476;SDS011;4275;42.854;23.222;2022-07-05T01:15:07;21.98;;;20.48;;
8476;SDS011;4275;42.854;23.222;2022-07-05T01:17:35;21.80;;;20.30;;
8476;SDS011;4275;42.854;23.222;2022-07-05T01:20:04;22.10;;;20.60;;
8476;SDS011;4275;42.854;23.222;2022-07-05T01:22:40;21.88;;;20.38;;
8476;SDS011;4275;42.854;23.222;2022-07-05T01:25:19;21.30;;;19.80;;
8476;SDS011;4275;42.854;23.222;2022-07-05T01:27:47;21.88;;;20.35;;
8476;SDS011;4275;42.854;23.222;2022-07-05T01:30:15;21.52;;;20.02;;
8476;SDS011;4275;42.854;23.222;2022-07-05T01:32:43;21.55;;;20.05;;
8476;SDS011;4275;42.854;23.222;2022-07-05T01:35:10;21.85;;;20.35;;
8476;SDS011;4275;42.854;23.222;2022-07-05T01:37:38;20.92;;;19.52;;
8476;SDS011;4275;42.854;23.222;2022-07-05T01:40:07;21.60;;;20.10;;
8476;SDS011;4275;42.854;23.222;2022-07-05T01:42:34;21.00;;;19.60;;
8476;SDS011;4275;42.854;23.222;2022-07-05T01:45:02;21.52;;;20.02;;
8476;SDS011;4275;42.854;23.222;2022-07-05T01:47:29;21.77;;;20.27;;
8476;SDS011;4275;42.854;23.222;2022-07-05T01:49:58;22.45;;;20.95;;
8476;SDS011;4275;42.854;23.222;2022-07-05T01:52:27;22.80;;;21.20;;
8476;SDS011;4275;42.854;23.222;2022-07-05T01:54:58;23.70;;;22.10;;
8476;SDS011;4275;42.854;23.222;2022-07-05T01:57:26;23.45;;;21.85;;
8476;SDS011;4275;42.854;23.222;2022-07-05T01:59:53;21.67;;;20.17;;
8476;SDS011;4275;42.854;23.222;2022-07-05T02:02:20;21.67;;;20.17;;
8476;SDS011;4275;42.854;23.222;2022-07-05T02:04:47;21.85;;;20.35;;
8476;SDS011;4275;42.854;23.222;2022-07-05T02:07:14;21.92;;;20.42;;
8476;SDS011;4275;42.854;23.222;2022-07-05T02:09:41;22.00;;;20.50;;
8476;SDS011;4275;42.854;23.222;2022-07-05T02:12:10;21.65;;;20.15;;
8476;SDS011;4275;42.854;23.222;2022-07-05T02:14:37;21.75;;;20.25;;
8476;SDS011;4275;42.854;23.222;2022-07-05T02:17:04;21.30;;;19.80;;
8476;SDS011;4275;42.854;23.222;2022-07-05T02:19:31;21.48;;;19.98;;
8476;SDS011;4275;42.854;23.222;2022-07-05T02:21:58;21.05;;;19.65;;
8476;SDS011;4275;42.854;23.222;2022-07-05T02:24:25;21.10;;;19.70;;
8476;SDS011;4275;42.854;23.222;2022-07-05T02:26:52;20.70;;;19.30;;
8476;SDS011;4275;42.854;23.222;2022-07-05T02:29:21;20.80;;;19.40;;
8476;SDS011;4275;42.854;23.222;2022-07-05T02:31:48;20.55;;;19.15;;
8476;SDS011;4275;42.854;23.222;2022-07-05T02:34:15;20.73;;;19.33;;
8476;SDS011;4275;42.854;23.222;2022-07-05T02:36:42;20.40;;;19.00;;
8476;SDS011;4275;42.854;23.222;2022-07-05T02:39:09;21.00;;;19.60;;
8476;SDS011;4275;42.854;23.222;2022-07-05T02:41:36;20.08;;;18.77;;
8476;SDS011;4275;42.854;23.222;2022-07-05T02:44:03;19.90;;;18.60;;
8476;SDS011;4275;42.854;23.222;2022-07-05T02:46:32;20.75;;;19.35;;
8476;SDS011;4275;42.854;23.222;2022-07-05T02:48:59;19.95;;;18.65;;
8476;SDS011;4275;42.854;23.222;2022-07-05T02:51:26;20.10;;;18.80;;
8476;SDS011;4275;42.854;23.222;2022-07-05T02:53:53;20.52;;;19.23;;
8476;SDS011;4275;42.854;23.222;2022-07-05T02:56:20;19.98;;;18.67;;
8476;SDS011;4275;42.854;23.222;2022-07-05T02:58:47;21.08;;;19.67;;
8476;SDS011;4275;42.854;23.222;2022-07-05T03:01:14;19.92;;;18.60;;
8476;SDS011;4275;42.854;23.222;2022-07-05T03:03:42;20.13;;;18.83;;
8476;SDS011;4275;42.854;23.222;2022-07-05T03:06:09;20.33;;;19.02;;
8476;SDS011;4275;42.854;23.222;2022-07-05T03:08:36;19.85;;;18.55;;
8476;SDS011;4275;42.854;23.222;2022-07-05T03:11:03;20.00;;;18.70;;
8476;SDS011;4275;42.854;23.222;2022-07-05T03:13:30;19.70;;;18.40;;
8476;SDS011;4275;42.854;23.222;2022-07-05T03:15:57;19.88;;;18.58;;
8476;SDS011;4275;42.854;23.222;2022-07-05T03:18:24;19.70;;;18.40;;
8476;SDS011;4275;42.854;23.222;2022-07-05T03:20:52;19.77;;;18.48;;
8476;SDS011;4275;42.854;23.222;2022-07-05T03:23:19;19.33;;;18.13;;
8476;SDS011;4275;42.854;23.222;2022-07-05T03:25:46;19.30;;;18.10;;
8476;SDS011;4275;42.854;23.222;2022-07-05T03:28:13;19.67;;;18.38;;
8476;SDS011;4275;42.854;23.222;2022-07-05T03:30:40;19.58;;;18.30;;
8476;SDS011;4275;42.854;23.222;2022-07-05T03:33:07;19.15;;;17.95;;
8476;SDS011;4275;42.854;23.222;2022-07-05T03:35:34;19.05;;;17.85;;
8476;SDS011;4275;42.854;23.222;2022-07-05T03:38:03;19.25;;;18.05;;
8476;SDS011;4275;42.854;23.222;2022-07-05T03:40:30;18.85;;;17.65;;
8476;SDS011;4275;42.854;23.222;2022-07-05T03:42:57;19.88;;;18.67;;
8476;SDS011;4275;42.854;23.222;2022-07-05T03:45:24;19.67;;;18.38;;
8476;SDS011;4275;42.854;23.222;2022-07-05T03:47:52;19.75;;;18.50;;
8476;SDS011;4275;42.854;23.222;2022-07-05T03:50:19;19.80;;;18.50;;
8476;SDS011;4275;42.854;23.222;2022-07-05T03:52:45;19.60;;;18.30;;
8476;SDS011;4275;42.854;23.222;2022-07-05T03:55:14;19.45;;;18.15;;
8476;SDS011;4275;42.854;23.222;2022-07-05T03:57:41;19.75;;;18.45;;
8476;SDS011;4275;42.854;23.222;2022-07-05T04:00:08;19.70;;;18.40;;
8476;SDS011;4275;42.854;23.222;2022-07-05T04:02:36;20.25;;;18.85;;
8476;SDS011;4275;42.854;23.222;2022-07-05T04:05:03;19.70;;;18.40;;
8476;SDS011;4275;42.854;23.222;2022-07-05T04:07:31;19.98;;;18.67;;
8476;SDS011;4275;42.854;23.222;2022-07-05T04:09:58;19.70;;;18.40;;
8476;SDS011;4275;42.854;23.222;2022-07-05T04:12:27;19.70;;;18.40;;
8476;SDS011;4275;42.854;23.222;2022-07-05T04:14:54;19.85;;;18.45;;
8476;SDS011;4275;42.854;23.222;2022-07-05T04:17:21;19.58;;;18.27;;
8476;SDS011;4275;42.854;23.222;2022-07-05T04:19:48;20.30;;;19.00;;
8476;SDS011;4275;42.854;23.222;2022-07-05T04:22:15;20.50;;;19.10;;
8476;SDS011;4275;42.854;23.222;2022-07-05T04:24:42;20.23;;;18.85;;
8476;SDS011;4275;42.854;23.222;2022-07-05T04:27:42;20.48;;;19.08;;
8476;SDS011;4275;42.854;23.222;2022-07-05T04:30:10;20.20;;;18.90;;
8476;SDS011;4275;42.854;23.222;2022-07-05T04:32:37;20.02;;;18.73;;
8476;SDS011;4275;42.854;23.222;2022-07-05T04:35:04;19.88;;;18.58;;
8476;SDS011;4275;42.854;23.222;2022-07-05T04:37:32;20.48;;;19.17;;
8476;SDS011;4275;42.854;23.222;2022-07-05T04:39:59;20.38;;;19.08;;
8476;SDS011;4275;42.854;23.222;2022-07-05T04:42:26;20.35;;;19.05;;
8476;SDS011;4275;42.854;23.222;2022-07-05T04:44:54;20.33;;;18.92;;
8476;SDS011;4275;42.854;23.222;2022-07-05T04:47:21;20.08;;;18.77;;
8476;SDS011;4275;42.854;23.222;2022-07-05T04:49:48;19.63;;;18.35;;
8476;SDS011;4275;42.854;23.222;2022-07-05T04:52:15;19.90;;;18.52;;
8476;SDS011;4275;42.854;23.222;2022-07-05T04:54:42;19.85;;;18.55;;
8476;SDS011;4275;42.854;23.222;2022-07-05T04:57:09;20.33;;;18.92;;
8476;SDS011;4275;42.854;23.222;2022-07-05T04:59:36;20.52;;;19.13;;
8476;SDS011;4275;42.854;23.222;2022-07-05T05:02:05;20.38;;;18.98;;
8476;SDS011;4275;42.854;23.222;2022-07-05T05:04:32;20.60;;;19.20;;
8476;SDS011;4275;42.854;23.222;2022-07-05T05:06:59;22.70;;;21.20;;
8476;SDS011;4275;42.854;23.222;2022-07-05T05:09:26;22.27;;;20.77;;
8476;SDS011;4275;42.854;23.222;2022-07-05T05:11:53;21.73;;;20.23;;
8476;SDS011;4275;42.854;23.222;2022-07-05T05:14:20;23.58;;;21.98;;
8476;SDS011;4275;42.854;23.222;2022-07-05T05:16:47;23.33;;;21.83;;
8476;SDS011;4275;42.854;23.222;2022-07-05T05:19:15;22.98;;;21.48;;
8476;SDS011;4275;42.854;23.222;2022-07-05T05:21:43;21.13;;;19.73;;
8476;SDS011;4275;42.854;23.222;2022-07-05T05:24:10;20.75;;;19.35;;
8476;SDS011;4275;42.854;23.222;2022-07-05T05:26:37;20.10;;;18.70;;
8476;SDS011;4275;42.854;23.222;2022-07-05T05:29:04;20.60;;;19.20;;
8476;SDS011;4275;42.854;23.222;2022-07-05T05:31:31;20.35;;;19.05;;
8476;SDS011;4275;42.854;23.222;2022-07-05T05:33:58;20.23;;;18.92;;
8476;SDS011;4275;42.854;23.222;2022-07-05T05:36:26;20.45;;;19.05;;
8476;SDS011;4275;42.854;23.222;2022-07-05T05:38:53;20.00;;;18.70;;
8476;SDS011;4275;42.854;23.222;2022-07-05T05:41:20;20.55;;;19.15;;
8476;SDS011;4275;42.854;23.222;2022-07-05T05:43:47;20.50;;;19.10;;
8476;SDS011;4275;42.854;23.222;2022-07-05T05:46:14;20.17;;;18.77;;
8476;SDS011;4275;42.854;23.222;2022-07-05T05:48:41;20.42;;;19.02;;
8476;SDS011;4275;42.854;23.222;2022-07-05T05:51:08;20.40;;;19.08;;
8476;SDS011;4275;42.854;23.222;2022-07-05T05:53:37;20.77;;;19.27;;
8476;SDS011;4275;42.854;23.222;2022-07-05T05:56:04;20.45;;;19.05;;
8476;SDS011;4275;42.854;23.222;2022-07-05T05:58:31;20.27;;;18.88;;
8476;SDS011;4275;42.854;23.222;2022-07-05T06:00:58;20.60;;;19.20;;
8476;SDS011;4275;42.854;23.222;2022-07-05T06:03:25;20.90;;;19.50;;
8476;SDS011;4275;42.854;23.222;2022-07-05T06:05:53;20.40;;;19.00;;
8476;SDS011;4275;42.854;23.222;2022-07-05T06:08:20;20.20;;;18.80;;
8476;SDS011;4275;42.854;23.222;2022-07-05T06:10:48;20.98;;;19.55;;
8476;SDS011;4275;42.854;23.222;2022-07-05T06:13:16;20.40;;;19.00;;
8476;SDS011;4275;42.854;23.222;2022-07-05T06:15:43;20.23;;;18.83;;
8476;SDS011;4275;42.854;23.222;2022-07-05T06:18:10;20.77;;;19.38;;
8476;SDS011;4275;42.854;23.222;2022-07-05T06:20:38;20.35;;;18.95;;
8476;SDS011;4275;42.854;23.222;2022-07-05T06:23:06;20.77;;;19.38;;
8476;SDS011;4275;42.854;23.222;2022-07-05T06:25:34;20.25;;;18.85;;
8476;SDS011;4275;42.854;23.222;2022-07-05T06:28:04;20.70;;;19.30;;
8476;SDS011;4275;42.854;23.222;2022-07-05T06:30:32;20.15;;;18.75;;
8476;SDS011;4275;42.854;23.222;2022-07-05T06:33:01;20.20;;;18.80;;
8476;SDS011;4275;42.854;23.222;2022-07-05T06:35:29;20.70;;;19.20;;
8476;SDS011;4275;42.854;23.222;2022-07-05T06:37:57;20.00;;;18.60;;
8476;SDS011;4275;42.854;23.222;2022-07-05T06:40:26;20.45;;;19.00;;
8476;SDS011;4275;42.854;23.222;2022-07-05T06:42:54;20.23;;;18.83;;
8476;SDS011;4275;42.854;23.222;2022-07-05T06:45:24;20.50;;;19.05;;
8476;SDS011;4275;42.854;23.222;2022-07-05T06:47:55;20.67;;;19.27;;
8476;SDS011;4275;42.854;23.222;2022-07-05T06:50:22;20.73;;;19.33;;
8476;SDS011;4275;42.854;23.222;2022-07-05T06:52:50;20.65;;;19.25;;
8476;SDS011;4275;42.854;23.222;2022-07-05T06:55:17;20.48;;;19.08;;
8476;SDS011;4275;42.854;23.222;2022-07-05T06:57:44;20.33;;;18.92;;
8476;SDS011;4275;42.854;23.222;2022-07-05T07:00:11;20.35;;;19.05;;
8476;SDS011;4275;42.854;23.222;2022-07-05T07:02:40;20.23;;;18.83;;
8476;SDS011;4275;42.854;23.222;2022-07-05T07:05:08;20.05;;;18.65;;
8476;SDS011;4275;42.854;23.222;2022-07-05T07:07:35;21.70;;;20.30;;
8476;SDS011;4275;42.854;23.222;2022-07-05T07:10:20;20.35;;;18.95;;
8476;SDS011;4275;42.854;23.222;2022-07-05T07:12:47;20.30;;;18.90;;
8476;SDS011;4275;42.854;23.222;2022-07-05T07:15:14;20.42;;;19.02;;
8476;SDS011;4275;42.854;23.222;2022-07-05T07:17:42;20.67;;;19.27;;
8476;SDS011;4275;42.854;23.222;2022-07-05T07:20:10;21.02;;;19.60;;
8476;SDS011;4275;42.854;23.222;2022-07-05T07:22:37;20.45;;;19.05;;
8476;SDS011;4275;42.854;23.222;2022-07-05T07:25:04;20.52;;;19.13;;
8476;SDS011;4275;42.854;23.222;2022-07-05T07:27:40;20.80;;;19.40;;
8476;SDS011;4275;42.854;23.222;2022-07-05T07:30:09;20.50;;;19.10;;
8476;SDS011;4275;42.854;23.222;2022-07-05T07:32:37;21.05;;;19.65;;
8476;SDS011;4275;42.854;23.222;2022-07-05T07:35:06;20.33;;;18.92;;
8476;SDS011;4275;42.854;23.222;2022-07-05T07:37:34;19.67;;;18.27;;
8476;SDS011;4275;42.854;23.222;2022-07-05T07:40:01;20.35;;;18.95;;
8476;SDS011;4275;42.854;23.222;2022-07-05T07:42:29;20.40;;;19.00;;
8476;SDS011;4275;42.854;23.222;2022-07-05T07:44:56;20.23;;;18.83;;
8476;SDS011;4275;42.854;23.222;2022-07-05T07:47:24;20.20;;;18.80;;
8476;SDS011;4275;42.854;23.222;2022-07-05T07:49:51;20.45;;;19.05;;
8476;SDS011;4275;42.854;23.222;2022-07-05T07:52:19;20.20;;;18.80;;
8476;SDS011;4275;42.854;23.222;2022-07-05T07:54:46;20.38;;;18.98;;
8476;SDS011;4275;42.854;23.222;2022-07-05T07:57:14;20.20;;;18.80;;
8476;SDS011;4275;42.854;23.222;2022-07-05T07:59:41;20.90;;;19.50;;
8476;SDS011;4275;42.854;23.222;2022-07-05T08:02:08;20.38;;;19.00;;
8476;SDS011;4275;42.854;23.222;2022-07-05T08:04:35;20.48;;;19.08;;
8476;SDS011;4275;42.854;23.222;2022-07-05T08:07:03;20.23;;;18.83;;
8476;SDS011;4275;42.854;23.222;2022-07-05T08:09:31;20.45;;;19.05;;
8476;SDS011;4275;42.854;23.222;2022-07-05T08:11:58;20.50;;;19.10;;
8476;SDS011;4275;42.854;23.222;2022-07-05T08:14:25;20.65;;;19.25;;
8476;SDS011;4275;42.854;23.222;2022-07-05T08:16:52;20.23;;;18.83;;
8476;SDS011;4275;42.854;23.222;2022-07-05T08:19:20;20.15;;;18.75;;
8476;SDS011;4275;42.854;23.222;2022-07-05T08:22:04;20.40;;;19.00;;
8476;SDS011;4275;42.854;23.222;2022-07-05T08:24:34;20.20;;;18.80;;
8476;SDS011;4275;42.854;23.222;2022-07-05T08:27:02;19.98;;;18.58;;
8476;SDS011;4275;42.854;23.222;2022-07-05T08:29:29;21.13;;;19.63;;
8476;SDS011;4275;42.854;23.222;2022-07-05T08:31:56;20.40;;;19.00;;
8476;SDS011;4275;42.854;23.222;2022-07-05T08:34:23;20.10;;;18.70;;
8476;SDS011;4275;42.854;23.222;2022-07-05T08:36:50;20.33;;;18.92;;
8476;SDS011;4275;42.854;23.222;2022-07-05T08:39:17;21.33;;;19.92;;
8476;SDS011;4275;42.854;23.222;2022-07-05T08:41:50;21.25;;;19.85;;
8476;SDS011;4275;42.854;23.222;2022-07-05T08:44:17;21.15;;;19.75;;
8476;SDS011;4275;42.854;23.222;2022-07-05T08:46:46;21.20;;;19.80;;
8476;SDS011;4275;42.854;23.222;2022-07-05T08:49:19;20.90;;;19.50;;
8476;SDS011;4275;42.854;23.222;2022-07-05T08:51:48;21.10;;;19.70;;
8476;SDS011;4275;42.854;23.222;2022-07-05T08:54:16;21.02;;;19.63;;
8476;SDS011;4275;42.854;23.222;2022-07-05T08:56:43;21.13;;;19.73;;
8476;SDS011;4275;42.854;23.222;2022-07-05T08:59:12;21.40;;;20.00;;
8476;SDS011;4275;42.854;23.222;2022-07-05T09:01:39;24.33;;;22.55;;
8476;SDS011;4275;42.854;23.222;2022-07-05T09:04:07;21.10;;;19.70;;
8476;SDS011;4275;42.854;23.222;2022-07-05T09:06:36;21.13;;;19.73;;
8476;SDS011;4275;42.854;23.222;2022-07-05T09:09:05;21.08;;;19.67;;
8476;SDS011;4275;42.854;23.222;2022-07-05T09:11:34;21.15;;;19.75;;
8476;SDS011;4275;42.854;23.222;2022-07-05T09:14:04;20.60;;;19.20;;
8476;SDS011;4275;42.854;23.222;2022-07-05T09:16:34;20.73;;;19.33;;
8476;SDS011;4275;42.854;23.222;2022-07-05T09:19:05;20.40;;;19.00;;
8476;SDS011;4275;42.854;23.222;2022-07-05T09:21:33;20.42;;;19.02;;
8476;SDS011;4275;42.854;23.222;2022-07-05T09:24:01;20.42;;;19.02;;
8476;SDS011;4275;42.854;23.222;2022-07-05T09:26:33;20.30;;;18.90;;
8476;SDS011;4275;42.854;23.222;2022-07-05T09:29:02;20.83;;;19.42;;
8476;SDS011;4275;42.854;23.222;2022-07-05T09:31:31;20.55;;;19.15;;
8476;SDS011;4275;42.854;23.222;2022-07-05T09:34:06;20.40;;;19.00;;
8476;SDS011;4275;42.854;23.222;2022-07-05T09:36:46;20.60;;;19.20;;
8476;SDS011;4275;42.854;23.222;2022-07-05T09:39:14;20.50;;;19.10;;
8476;SDS011;4275;42.854;23.222;2022-07-05T09:41:42;20.27;;;18.88;;
8476;SDS011;4275;42.854;23.222;2022-07-05T09:44:09;20.35;;;18.95;;
8476;SDS011;4275;42.854;23.222;2022-07-05T09:46:36;20.55;;;19.15;;
8476;SDS011;4275;42.854;23.222;2022-07-05T09:49:03;20.48;;;19.08;;
8476;SDS011;4275;42.854;23.222;2022-07-05T09:51:46;20.70;;;19.30;;
8476;SDS011;4275;42.854;23.222;2022-07-05T09:54:14;20.92;;;19.52;;
8476;SDS011;4275;42.854;23.222;2022-07-05T09:56:45;20.65;;;19.25;;
8476;SDS011;4275;42.854;23.222;2022-07-05T09:59:17;20.27;;;18.88;;
8476;SDS011;4275;42.854;23.222;2022-07-05T10:01:46;20.83;;;19.42;;
8476;SDS011;4275;42.854;23.222;2022-07-05T10:04:15;20.70;;;19.30;;
8476;SDS011;4275;42.854;23.222;2022-07-05T10:06:42;20.95;;;19.55;;
8476;SDS011;4275;42.854;23.222;2022-07-05T10:09:10;20.20;;;18.80;;
8476;SDS011;4275;42.854;23.222;2022-07-05T10:11:38;20.42;;;19.02;;
8476;SDS011;4275;42.854;23.222;2022-07-05T10:14:09;21.10;;;19.70;;
8476;SDS011;4275;42.854;23.222;2022-07-05T10:16:38;21.40;;;20.00;;
8476;SDS011;4275;42.854;23.222;2022-07-05T10:19:05;20.55;;;19.15;;
8476;SDS011;4275;42.854;23.222;2022-07-05T10:21:41;20.95;;;19.55;;
8476;SDS011;4275;42.854;23.222;2022-07-05T10:24:10;20.88;;;19.48;;
8476;SDS011;4275;42.854;23.222;2022-07-05T10:26:38;20.55;;;19.15;;
8476;SDS011;4275;42.854;23.222;2022-07-05T10:29:06;20.77;;;19.38;;
8476;SDS011;4275;42.854;23.222;2022-07-05T10:31:35;20.70;;;19.30;;
8476;SDS011;4275;42.854;23.222;2022-07-05T10:34:04;20.55;;;19.15;;
8476;SDS011;4275;42.854;23.222;2022-07-05T10:36:33;20.98;;;19.58;;
8476;SDS011;4275;42.854;23.222;2022-07-05T10:39:04;21.33;;;19.92;;
8476;SDS011;4275;42.854;23.222;2022-07-05T10:41:32;21.08;;;19.67;;
8476;SDS011;4275;42.854;23.222;2022-07-05T10:44:00;21.05;;;19.65;;
8476;SDS011;4275;42.854;23.222;2022-07-05T10:46:34;24.02;;;22.38;;
8476;SDS011;4275;42.854;23.222;2022-07-05T10:49:11;20.77;;;19.38;;
8476;SDS011;4275;42.854;23.222;2022-07-05T10:51:43;21.25;;;19.85;;
8476;SDS011;4275;42.854;23.222;2022-07-05T10:54:11;20.55;;;19.15;;
8476;SDS011;4275;42.854;23.222;2022-07-05T10:56:38;20.13;;;18.83;;
8476;SDS011;4275;42.854;23.222;2022-07-05T10:59:06;20.75;;;19.33;;
8476;SDS011;4275;42.854;23.222;2022-07-05T11:01:40;20.42;;;19.02;;
8476;SDS011;4275;42.854;23.222;2022-07-05T11:04:21;21.05;;;19.65;;
8476;SDS011;4275;42.854;23.222;2022-07-05T11:07:03;20.90;;;19.50;;
8476;SDS011;4275;42.854;23.222;2022-07-05T11:09:32;20.17;;;18.88;;
8476;SDS011;4275;42.854;23.222;2022-07-05T11:12:06;20.70;;;19.30;;
8476;SDS011;4275;42.854;23.222;2022-07-05T11:14:37;20.95;;;19.55;;
8476;SDS011;4275;42.854;23.222;2022-07-05T11:20:04;21.02;;;19.60;;
8476;SDS011;4275;42.854;23.222;2022-07-05T11:22:37;20.70;;;19.30;;
8476;SDS011;4275;42.854;23.222;2022-07-05T11:25:09;21.35;;;19.85;;
8476;SDS011;4275;42.854;23.222;2022-07-05T11:30:26;21.48;;;19.98;;
8476;SDS011;4275;42.854;23.222;2022-07-05T11:32:53;21.15;;;19.65;;
8476;SDS011;4275;42.854;23.222;2022-07-05T11:35:20;20.67;;;19.27;;
8476;SDS011;4275;42.854;23.222;2022-07-05T11:37:59;21.08;;;19.67;;
8476;SDS011;4275;42.854;23.222;2022-07-05T11:40:31;21.35;;;19.95;;
8476;SDS011;4275;42.854;23.222;2022-07-05T11:42:59;20.75;;;19.25;;
8476;SDS011;4275;42.854;23.222;2022-07-05T11:45:28;20.77;;;19.27;;
8476;SDS011;4275;42.854;23.222;2022-07-05T11:47:56;20.77;;;19.38;;
8476;SDS011;4275;42.854;23.222;2022-07-05T11:50:30;21.67;;;20.25;;
8476;SDS011;4275;42.854;23.222;2022-07-05T11:52:58;21.58;;;20.08;;
8476;SDS011;4275;42.854;23.222;2022-07-05T11:55:26;20.70;;;19.30;;
8476;SDS011;4275;42.854;23.222;2022-07-05T11:57:56;20.90;;;19.40;;
8476;SDS011;4275;42.854;23.222;2022-07-05T12:00:28;21.08;;;19.58;;
8476;SDS011;4275;42.854;23.222;2022-07-05T12:02:56;21.27;;;19.83;;
8476;SDS011;4275;42.854;23.222;2022-07-05T12:05:28;21.65;;;20.15;;
8476;SDS011;4275;42.854;23.222;2022-07-05T12:07:56;21.05;;;19.60;;
8476;SDS011;4275;42.854;23.222;2022-07-05T12:10:23;20.60;;;19.10;;
8476;SDS011;4275;42.854;23.222;2022-07-05T12:13:09;21.05;;;19.55;;
8476;SDS011;4275;42.854;23.222;2022-07-05T12:15:37;21.20;;;19.70;;
8476;SDS011;4275;42.854;23.222;2022-07-05T12:18:05;20.90;;;19.40;;
8476;SDS011;4275;42.854;23.222;2022-07-05T12:20:34;21.27;;;19.75;;
8476;SDS011;4275;42.854;23.222;2022-07-05T12:23:02;20.85;;;19.35;;
8476;SDS011;4275;42.854;23.222;2022-07-05T12:25:29;20.85;;;19.35;;
8476;SDS011;4275;42.854;23.222;2022-07-05T12:27:58;20.80;;;19.30;;
8476;SDS011;4275;42.854;23.222;2022-07-05T12:30:28;21.10;;;19.60;;
8476;SDS011;4275;42.854;23.222;2022-07-05T12:32:58;20.48;;;19.05;;
8476;SDS011;4275;42.854;23.222;2022-07-05T12:35:26;20.58;;;19.08;;
8476;SDS011;4275;42.854;23.222;2022-07-05T12:38:05;20.48;;;18.98;;
8476;SDS011;4275;42.854;23.222;2022-07-05T12:40:34;20.63;;;19.13;;
8476;SDS011;4275;42.854;23.222;2022-07-05T12:43:05;20.98;;;19.48;;
8476;SDS011;4275;42.854;23.222;2022-07-05T12:45:35;20.70;;;19.20;;
8476;SDS011;4275;42.854;23.222;2022-07-05T12:48:04;21.05;;;19.48;;
8476;SDS011;4275;42.854;23.222;2022-07-05T12:50:46;21.67;;;20.17;;
8476;SDS011;4275;42.854;23.222;2022-07-05T12:53:14;22.00;;;20.50;;
8476;SDS011;4275;42.854;23.222;2022-07-05T12:55:59;21.30;;;19.70;;
8476;SDS011;4275;42.854;23.222;2022-07-05T12:58:45;21.27;;;19.77;;
8476;SDS011;4275;42.854;23.222;2022-07-05T13:01:21;22.00;;;20.50;;
8476;SDS011;4275;42.854;23.222;2022-07-05T13:03:57;21.95;;;20.45;;
8476;SDS011;4275;42.854;23.222;2022-07-05T13:06:39;21.88;;;20.38;;
8476;SDS011;4275;42.854;23.222;2022-07-05T13:09:06;21.83;;;20.33;;
8476;SDS011;4275;42.854;23.222;2022-07-05T13:11:34;22.35;;;20.75;;
8476;SDS011;4275;42.854;23.222;2022-07-05T13:14:01;22.13;;;20.63;;
8476;SDS011;4275;42.854;23.222;2022-07-05T13:16:29;21.67;;;20.17;;
8476;SDS011;4275;42.854;23.222;2022-07-05T13:19:05;22.00;;;20.40;;
8476;SDS011;4275;42.854;23.222;2022-07-05T13:21:33;21.98;;;20.48;;
8476;SDS011;4275;42.854;23.222;2022-07-05T13:24:00;22.20;;;20.60;;
8476;SDS011;4275;42.854;23.222;2022-07-05T13:26:27;21.60;;;20.00;;
8476;SDS011;4275;42.854;23.222;2022-07-05T13:28:54;21.85;;;20.25;;
8476;SDS011;4275;42.854;23.222;2022-07-05T13:31:21;22.40;;;20.80;;
8476;SDS011;4275;42.854;23.222;2022-07-05T13:33:50;21.67;;;20.13;;
8476;SDS011;4275;42.854;23.222;2022-07-05T13:36:17;21.95;;;20.35;;
8476;SDS011;4275;42.854;23.222;2022-07-05T13:38:44;22.45;;;20.85;;
8476;SDS011;4275;42.854;23.222;2022-07-05T13:41:11;22.92;;;21.27;;
8476;SDS011;4275;42.854;23.222;2022-07-05T13:43:38;22.25;;;20.65;;
8476;SDS011;4275;42.854;23.222;2022-07-05T13:46:05;22.55;;;20.85;;
8476;SDS011;4275;42.854;23.222;2022-07-05T13:48:32;22.60;;;21.00;;
8476;SDS011;4275;42.854;23.222;2022-07-05T13:51:01;22.27;;;20.67;;
8476;SDS011;4275;42.854;23.222;2022-07-05T13:53:28;22.17;;;20.58;;
8476;SDS011;4275;42.854;23.222;2022-07-05T13:55:55;22.48;;;20.83;;
8476;SDS011;4275;42.854;23.222;2022-07-05T13:58:22;22.08;;;20.48;;
8476;SDS011;4275;42.854;23.222;2022-07-05T14:00:50;22.23;;;20.63;;
8476;SDS011;4275;42.854;23.222;2022-07-05T14:03:17;21.70;;;20.13;;
8476;SDS011;4275;42.854;23.222;2022-07-05T14:05:44;21.60;;;20.00;;
8476;SDS011;4275;42.854;23.222;2022-07-05T14:08:12;22.45;;;20.75;;
8476;SDS011;4275;42.854;23.222;2022-07-05T14:10:40;21.88;;;20.27;;
8476;SDS011;4275;42.854;23.222;2022-07-05T14:13:07;21.80;;;20.20;;
8476;SDS011;4275;42.854;23.222;2022-07-05T14:15:34;21.85;;;20.25;;
8476;SDS011;4275;42.854;23.222;2022-07-05T14:18:01;21.95;;;20.35;;
8476;SDS011;4275;42.854;23.222;2022-07-05T14:20:28;22.13;;;20.52;;
8476;SDS011;4275;42.854;23.222;2022-07-05T14:22:55;21.88;;;20.27;;
8476;SDS011;4275;42.854;23.222;2022-07-05T14:25:24;22.35;;;20.75;;
8476;SDS011;4275;42.854;23.222;2022-07-05T14:27:51;21.77;;;20.17;;
8476;SDS011;4275;42.854;23.222;2022-07-05T14:30:18;21.52;;;19.92;;
8476;SDS011;4275;42.854;23.222;2022-07-05T14:32:45;21.77;;;20.17;;
8476;SDS011;4275;42.854;23.222;2022-07-05T14:35:12;22.05;;;20.35;;
8476;SDS011;4275;42.854;23.222;2022-07-05T14:37:39;22.15;;;20.55;;
8476;SDS011;4275;42.854;23.222;2022-07-05T14:40:06;23.05;;;21.30;;
8476;SDS011;4275;42.854;23.222;2022-07-05T14:42:36;22.52;;;20.92;;
8476;SDS011;4275;42.854;23.222;2022-07-05T14:45:03;22.75;;;21.15;;
8476;SDS011;4275;42.854;23.222;2022-07-05T14:47:31;22.20;;;20.60;;